Terminal Aerodrome Forecast
Issued by NWS

Home | Current Version | Previous Version | Text Only | Print | Product List | Glossary On
Versions: 1 2 3 4 5 6 7 8 9 10 11 12 13
000
FTUS44 KBMX 282339
TAFMGM
TAF
KMGM 282339Z 2900/2924 07006KT P6SM VCTS BKN040CB
     FM290300 10003KT P6SM BKN250
     FM290700 09005KT 4SM BR SCT007 OVC015
      TEMPO 2910/2913 BKN007 OVC015
     FM291600 11007KT P6SM VCTS BKN050CB=

USA.gov is the U.S. government's official web portal to all federal, state and local government web resources and services.